sensor_id;sensor_type;location;lat;lon;timestamp;P1;durP1;ratioP1;P2;durP2;ratioP2
68365;SDS011;55283;51.466;5.478;2022-10-16T00:00:42;2.90;;;1.70;;
68365;SDS011;55283;51.466;5.478;2022-10-16T00:03:08;2.83;;;1.43;;
68365;SDS011;55283;51.466;5.478;2022-10-16T00:05:37;2.70;;;1.65;;
68365;SDS011;55283;51.466;5.478;2022-10-16T00:08:05;3.28;;;1.65;;
68365;SDS011;55283;51.466;5.478;2022-10-16T00:10:30;2.70;;;1.50;;
68365;SDS011;55283;51.466;5.478;2022-10-16T00:12:56;2.53;;;1.50;;
68365;SDS011;55283;51.466;5.478;2022-10-16T00:15:21;2.37;;;1.40;;
68365;SDS011;55283;51.466;5.478;2022-10-16T00:17:47;2.05;;;1.50;;
68365;SDS011;55283;51.466;5.478;2022-10-16T00:20:12;2.40;;;1.50;;
68365;SDS011;55283;51.466;5.478;2022-10-16T00:22:37;2.10;;;1.40;;
68365;SDS011;55283;51.466;5.478;2022-10-16T00:25:03;2.07;;;1.47;;
68365;SDS011;55283;51.466;5.478;2022-10-16T00:27:29;3.05;;;1.60;;
68365;SDS011;55283;51.466;5.478;2022-10-16T00:29:54;2.60;;;1.47;;
68365;SDS011;55283;51.466;5.478;2022-10-16T00:32:19;2.80;;;1.53;;
68365;SDS011;55283;51.466;5.478;2022-10-16T00:34:45;2.43;;;1.50;;
68365;SDS011;55283;51.466;5.478;2022-10-16T00:37:11;3.57;;;1.60;;
68365;SDS011;55283;51.466;5.478;2022-10-16T00:39:37;2.90;;;1.60;;
68365;SDS011;55283;51.466;5.478;2022-10-16T00:42:03;2.27;;;1.60;;
68365;SDS011;55283;51.466;5.478;2022-10-16T00:47:39;2.97;;;1.50;;
68365;SDS011;55283;51.466;5.478;2022-10-16T00:52:36;3.53;;;1.52;;
68365;SDS011;55283;51.466;5.478;2022-10-16T00:55:07;1.87;;;1.43;;
68365;SDS011;55283;51.466;5.478;2022-10-16T00:57:34;1.65;;;1.40;;
68365;SDS011;55283;51.466;5.478;2022-10-16T00:59:59;2.33;;;1.40;;
68365;SDS011;55283;51.466;5.478;2022-10-16T01:02:25;2.60;;;1.33;;
68365;SDS011;55283;51.466;5.478;2022-10-16T01:04:50;2.13;;;1.33;;
68365;SDS011;55283;51.466;5.478;2022-10-16T01:13:04;2.85;;;1.50;;
68365;SDS011;55283;51.466;5.478;2022-10-16T01:28:22;2.30;;;1.40;;
68365;SDS011;55283;51.466;5.478;2022-10-16T01:30:55;1.60;;;1.40;;
68365;SDS011;55283;51.466;5.478;2022-10-16T01:33:25;1.50;;;1.20;;
68365;SDS011;55283;51.466;5.478;2022-10-16T01:36:06;3.70;;;1.40;;
68365;SDS011;55283;51.466;5.478;2022-10-16T01:38:39;1.63;;;1.27;;
68365;SDS011;55283;51.466;5.478;2022-10-16T01:41:13;2.33;;;1.35;;
68365;SDS011;55283;51.466;5.478;2022-10-16T01:43:50;1.77;;;1.30;;
68365;SDS011;55283;51.466;5.478;2022-10-16T01:46:21;3.30;;;1.50;;
68365;SDS011;55283;51.466;5.478;2022-10-16T01:48:48;1.83;;;1.52;;
68365;SDS011;55283;51.466;5.478;2022-10-16T01:51:16;1.90;;;1.20;;
68365;SDS011;55283;51.466;5.478;2022-10-16T01:53:46;1.55;;;1.20;;
68365;SDS011;55283;51.466;5.478;2022-10-16T01:56:16;2.10;;;1.30;;
68365;SDS011;55283;51.466;5.478;2022-10-16T01:58:48;1.70;;;1.40;;
68365;SDS011;55283;51.466;5.478;2022-10-16T02:01:18;1.63;;;1.30;;
68365;SDS011;55283;51.466;5.478;2022-10-16T02:03:46;1.20;;;1.10;;
68365;SDS011;55283;51.466;5.478;2022-10-16T02:06:17;2.65;;;1.52;;
68365;SDS011;55283;51.466;5.478;2022-10-16T02:08:43;1.30;;;1.17;;
68365;SDS011;55283;51.466;5.478;2022-10-16T02:11:09;2.72;;;1.35;;
68365;SDS011;55283;51.466;5.478;2022-10-16T02:16:15;2.72;;;1.35;;
68365;SDS011;55283;51.466;5.478;2022-10-16T02:18:40;2.23;;;1.20;;
68365;SDS011;55283;51.466;5.478;2022-10-16T02:21:19;3.10;;;1.10;;
68365;SDS011;55283;51.466;5.478;2022-10-16T02:27:03;2.47;;;1.20;;
68365;SDS011;55283;51.466;5.478;2022-10-16T02:29:34;3.03;;;1.20;;
68365;SDS011;55283;51.466;5.478;2022-10-16T02:32:04;1.33;;;1.20;;
68365;SDS011;55283;51.466;5.478;2022-10-16T02:34:32;1.47;;;1.20;;
68365;SDS011;55283;51.466;5.478;2022-10-16T02:36:59;1.38;;;1.20;;
68365;SDS011;55283;51.466;5.478;2022-10-16T02:39:29;1.70;;;1.15;;
68365;SDS011;55283;51.466;5.478;2022-10-16T02:41:55;2.17;;;1.20;;
68365;SDS011;55283;51.466;5.478;2022-10-16T02:44:20;1.75;;;1.20;;
68365;SDS011;55283;51.466;5.478;2022-10-16T02:46:46;1.53;;;1.20;;
68365;SDS011;55283;51.466;5.478;2022-10-16T02:49:11;1.70;;;1.17;;
68365;SDS011;55283;51.466;5.478;2022-10-16T02:51:37;1.47;;;1.00;;
68365;SDS011;55283;51.466;5.478;2022-10-16T02:54:02;1.77;;;1.20;;
68365;SDS011;55283;51.466;5.478;2022-10-16T02:56:28;1.83;;;1.10;;
68365;SDS011;55283;51.466;5.478;2022-10-16T02:58:54;1.15;;;1.00;;
68365;SDS011;55283;51.466;5.478;2022-10-16T03:01:20;1.27;;;1.00;;
68365;SDS011;55283;51.466;5.478;2022-10-16T03:03:45;1.27;;;1.00;;
68365;SDS011;55283;51.466;5.478;2022-10-16T03:06:10;1.33;;;1.10;;
68365;SDS011;55283;51.466;5.478;2022-10-16T03:08:36;1.70;;;1.27;;
68365;SDS011;55283;51.466;5.478;2022-10-16T03:11:01;2.47;;;1.40;;
68365;SDS011;55283;51.466;5.478;2022-10-16T03:13:26;1.20;;;1.10;;
68365;SDS011;55283;51.466;5.478;2022-10-16T03:15:52;1.10;;;1.00;;
68365;SDS011;55283;51.466;5.478;2022-10-16T03:18:17;1.60;;;1.20;;
68365;SDS011;55283;51.466;5.478;2022-10-16T03:20:43;1.57;;;1.10;;
68365;SDS011;55283;51.466;5.478;2022-10-16T03:23:08;1.53;;;1.30;;
68365;SDS011;55283;51.466;5.478;2022-10-16T03:25:34;1.67;;;1.20;;
68365;SDS011;55283;51.466;5.478;2022-10-16T03:27:59;1.50;;;1.13;;
68365;SDS011;55283;51.466;5.478;2022-10-16T03:30:25;1.40;;;1.17;;
68365;SDS011;55283;51.466;5.478;2022-10-16T03:32:50;1.33;;;1.00;;
68365;SDS011;55283;51.466;5.478;2022-10-16T03:35:19;1.48;;;0.98;;
68365;SDS011;55283;51.466;5.478;2022-10-16T03:37:47;1.20;;;1.00;;
68365;SDS011;55283;51.466;5.478;2022-10-16T03:40:12;2.50;;;1.23;;
68365;SDS011;55283;51.466;5.478;2022-10-16T03:42:38;1.27;;;1.10;;
68365;SDS011;55283;51.466;5.478;2022-10-16T03:45:04;1.67;;;1.00;;
68365;SDS011;55283;51.466;5.478;2022-10-16T03:47:30;1.83;;;1.10;;
68365;SDS011;55283;51.466;5.478;2022-10-16T03:49:57;1.70;;;1.05;;
68365;SDS011;55283;51.466;5.478;2022-10-16T03:52:23;1.50;;;1.10;;
68365;SDS011;55283;51.466;5.478;2022-10-16T03:54:49;1.37;;;1.10;;
68365;SDS011;55283;51.466;5.478;2022-10-16T03:57:14;1.03;;;0.90;;
68365;SDS011;55283;51.466;5.478;2022-10-16T03:59:40;1.67;;;1.00;;
68365;SDS011;55283;51.466;5.478;2022-10-16T04:02:05;1.37;;;1.10;;
68365;SDS011;55283;51.466;5.478;2022-10-16T04:04:30;1.30;;;1.07;;
68365;SDS011;55283;51.466;5.478;2022-10-16T04:06:56;1.90;;;1.00;;
68365;SDS011;55283;51.466;5.478;2022-10-16T04:09:21;1.10;;;1.00;;
68365;SDS011;55283;51.466;5.478;2022-10-16T04:11:47;1.40;;;1.02;;
68365;SDS011;55283;51.466;5.478;2022-10-16T04:14:12;1.47;;;1.00;;
68365;SDS011;55283;51.466;5.478;2022-10-16T04:16:37;1.37;;;1.10;;
68365;SDS011;55283;51.466;5.478;2022-10-16T04:19:03;1.57;;;1.10;;
68365;SDS011;55283;51.466;5.478;2022-10-16T04:21:28;1.73;;;1.10;;
68365;SDS011;55283;51.466;5.478;2022-10-16T04:23:53;2.72;;;0.98;;
68365;SDS011;55283;51.466;5.478;2022-10-16T04:26:19;1.10;;;0.90;;
68365;SDS011;55283;51.466;5.478;2022-10-16T04:28:45;1.67;;;1.00;;
68365;SDS011;55283;51.466;5.478;2022-10-16T04:31:10;1.20;;;1.10;;
68365;SDS011;55283;51.466;5.478;2022-10-16T04:33:36;1.10;;;1.00;;
68365;SDS011;55283;51.466;5.478;2022-10-16T04:36:02;1.10;;;0.90;;
68365;SDS011;55283;51.466;5.478;2022-10-16T04:38:28;1.10;;;0.95;;
68365;SDS011;55283;51.466;5.478;2022-10-16T04:40:54;1.37;;;1.10;;
68365;SDS011;55283;51.466;5.478;2022-10-16T04:43:19;1.17;;;1.08;;
68365;SDS011;55283;51.466;5.478;2022-10-16T04:45:45;1.20;;;1.00;;
68365;SDS011;55283;51.466;5.478;2022-10-16T04:48:11;1.58;;;1.05;;
68365;SDS011;55283;51.466;5.478;2022-10-16T04:50:36;2.63;;;1.10;;
68365;SDS011;55283;51.466;5.478;2022-10-16T04:53:01;7.13;;;1.30;;
68365;SDS011;55283;51.466;5.478;2022-10-16T04:55:27;1.50;;;1.10;;
68365;SDS011;55283;51.466;5.478;2022-10-16T04:57:52;3.40;;;0.97;;
68365;SDS011;55283;51.466;5.478;2022-10-16T05:00:18;1.53;;;0.90;;
68365;SDS011;55283;51.466;5.478;2022-10-16T05:02:43;1.00;;;0.90;;
68365;SDS011;55283;51.466;5.478;2022-10-16T05:05:10;1.63;;;0.90;;
68365;SDS011;55283;51.466;5.478;2022-10-16T05:07:35;1.33;;;1.08;;
68365;SDS011;55283;51.466;5.478;2022-10-16T05:10:02;2.27;;;1.00;;
68365;SDS011;55283;51.466;5.478;2022-10-16T05:12:28;1.55;;;1.10;;
68365;SDS011;55283;51.466;5.478;2022-10-16T05:14:59;1.00;;;0.90;;
68365;SDS011;55283;51.466;5.478;2022-10-16T05:17:25;1.10;;;1.00;;
68365;SDS011;55283;51.466;5.478;2022-10-16T05:19:51;1.55;;;0.95;;
68365;SDS011;55283;51.466;5.478;2022-10-16T05:22:17;1.30;;;1.00;;
68365;SDS011;55283;51.466;5.478;2022-10-16T05:24:42;1.33;;;1.10;;
68365;SDS011;55283;51.466;5.478;2022-10-16T05:27:07;1.02;;;0.90;;
68365;SDS011;55283;51.466;5.478;2022-10-16T05:29:33;1.63;;;1.10;;
68365;SDS011;55283;51.466;5.478;2022-10-16T05:31:58;3.07;;;0.90;;
68365;SDS011;55283;51.466;5.478;2022-10-16T05:34:24;1.07;;;0.90;;
68365;SDS011;55283;51.466;5.478;2022-10-16T05:36:49;1.50;;;1.10;;
68365;SDS011;55283;51.466;5.478;2022-10-16T05:39:15;1.50;;;0.90;;
68365;SDS011;55283;51.466;5.478;2022-10-16T05:41:41;2.67;;;0.90;;
68365;SDS011;55283;51.466;5.478;2022-10-16T05:44:07;1.08;;;0.80;;
68365;SDS011;55283;51.466;5.478;2022-10-16T05:46:32;3.53;;;1.00;;
68365;SDS011;55283;51.466;5.478;2022-10-16T05:48:58;0.85;;;0.85;;
68365;SDS011;55283;51.466;5.478;2022-10-16T05:51:24;2.47;;;1.20;;
68365;SDS011;55283;51.466;5.478;2022-10-16T05:53:49;2.65;;;1.20;;
68365;SDS011;55283;51.466;5.478;2022-10-16T05:56:16;1.90;;;1.30;;
68365;SDS011;55283;51.466;5.478;2022-10-16T05:58:42;1.20;;;1.10;;
68365;SDS011;55283;51.466;5.478;2022-10-16T06:01:13;1.93;;;1.20;;
68365;SDS011;55283;51.466;5.478;2022-10-16T06:03:40;3.33;;;1.30;;
68365;SDS011;55283;51.466;5.478;2022-10-16T06:06:16;1.42;;;1.00;;
68365;SDS011;55283;51.466;5.478;2022-10-16T06:08:43;2.42;;;1.27;;
68365;SDS011;55283;51.466;5.478;2022-10-16T06:11:20;2.00;;;1.00;;
68365;SDS011;55283;51.466;5.478;2022-10-16T06:13:50;2.05;;;1.20;;
68365;SDS011;55283;51.466;5.478;2022-10-16T06:16:17;3.33;;;1.20;;
68365;SDS011;55283;51.466;5.478;2022-10-16T06:18:42;1.90;;;1.00;;
68365;SDS011;55283;51.466;5.478;2022-10-16T06:21:12;2.75;;;1.35;;
68365;SDS011;55283;51.466;5.478;2022-10-16T06:23:41;2.03;;;1.00;;
68365;SDS011;55283;51.466;5.478;2022-10-16T06:26:11;2.35;;;1.08;;
68365;SDS011;55283;51.466;5.478;2022-10-16T06:28:38;3.30;;;1.00;;
68365;SDS011;55283;51.466;5.478;2022-10-16T06:31:04;2.75;;;1.08;;
68365;SDS011;55283;51.466;5.478;2022-10-16T06:33:31;2.60;;;1.00;;
68365;SDS011;55283;51.466;5.478;2022-10-16T06:36:00;3.93;;;1.00;;
68365;SDS011;55283;51.466;5.478;2022-10-16T06:38:31;4.80;;;1.10;;
68365;SDS011;55283;51.466;5.478;2022-10-16T06:40:56;5.22;;;1.70;;
68365;SDS011;55283;51.466;5.478;2022-10-16T06:43:22;5.28;;;2.30;;
68365;SDS011;55283;51.466;5.478;2022-10-16T06:45:52;4.73;;;1.90;;
68365;SDS011;55283;51.466;5.478;2022-10-16T06:48:18;9.85;;;2.33;;
68365;SDS011;55283;51.466;5.478;2022-10-16T06:50:43;8.37;;;2.27;;
68365;SDS011;55283;51.466;5.478;2022-10-16T06:53:08;7.03;;;1.90;;
68365;SDS011;55283;51.466;5.478;2022-10-16T06:55:34;4.07;;;1.90;;
68365;SDS011;55283;51.466;5.478;2022-10-16T06:57:59;4.47;;;1.77;;
68365;SDS011;55283;51.466;5.478;2022-10-16T07:00:25;5.10;;;1.80;;
68365;SDS011;55283;51.466;5.478;2022-10-16T07:02:50;4.90;;;1.70;;
68365;SDS011;55283;51.466;5.478;2022-10-16T07:05:16;5.72;;;2.00;;
68365;SDS011;55283;51.466;5.478;2022-10-16T07:07:41;6.17;;;1.70;;
68365;SDS011;55283;51.466;5.478;2022-10-16T07:10:07;3.03;;;1.80;;
68365;SDS011;55283;51.466;5.478;2022-10-16T07:12:32;5.07;;;1.65;;
68365;SDS011;55283;51.466;5.478;2022-10-16T07:14:58;7.73;;;1.70;;
68365;SDS011;55283;51.466;5.478;2022-10-16T07:17:23;5.57;;;1.60;;
68365;SDS011;55283;51.466;5.478;2022-10-16T07:19:48;8.35;;;1.67;;
68365;SDS011;55283;51.466;5.478;2022-10-16T07:22:14;5.00;;;1.77;;
68365;SDS011;55283;51.466;5.478;2022-10-16T07:24:40;6.10;;;1.57;;
68365;SDS011;55283;51.466;5.478;2022-10-16T07:27:05;4.68;;;1.73;;
68365;SDS011;55283;51.466;5.478;2022-10-16T07:29:30;7.60;;;1.40;;
68365;SDS011;55283;51.466;5.478;2022-10-16T07:31:56;4.00;;;1.80;;
68365;SDS011;55283;51.466;5.478;2022-10-16T07:34:21;3.77;;;1.60;;
68365;SDS011;55283;51.466;5.478;2022-10-16T07:36:48;4.00;;;1.60;;
68365;SDS011;55283;51.466;5.478;2022-10-16T07:39:14;3.20;;;1.40;;
68365;SDS011;55283;51.466;5.478;2022-10-16T07:41:40;3.60;;;1.60;;
68365;SDS011;55283;51.466;5.478;2022-10-16T07:44:05;5.22;;;1.55;;
68365;SDS011;55283;51.466;5.478;2022-10-16T07:46:31;3.13;;;1.50;;
68365;SDS011;55283;51.466;5.478;2022-10-16T07:48:58;3.70;;;1.55;;
68365;SDS011;55283;51.466;5.478;2022-10-16T07:51:24;2.70;;;1.40;;
68365;SDS011;55283;51.466;5.478;2022-10-16T07:53:50;4.28;;;1.23;;
68365;SDS011;55283;51.466;5.478;2022-10-16T07:56:17;4.05;;;1.80;;
68365;SDS011;55283;51.466;5.478;2022-10-16T07:58:43;4.53;;;1.67;;
68365;SDS011;55283;51.466;5.478;2022-10-16T08:01:10;1.88;;;1.30;;
68365;SDS011;55283;51.466;5.478;2022-10-16T08:03:37;2.63;;;1.30;;
68365;SDS011;55283;51.466;5.478;2022-10-16T08:06:03;3.58;;;1.20;;
68365;SDS011;55283;51.466;5.478;2022-10-16T08:08:29;2.93;;;1.47;;
68365;SDS011;55283;51.466;5.478;2022-10-16T08:10:55;2.28;;;1.48;;
68365;SDS011;55283;51.466;5.478;2022-10-16T08:13:21;1.53;;;1.20;;
68365;SDS011;55283;51.466;5.478;2022-10-16T08:15:46;2.15;;;1.30;;
68365;SDS011;55283;51.466;5.478;2022-10-16T08:18:12;4.63;;;1.50;;
68365;SDS011;55283;51.466;5.478;2022-10-16T08:20:39;2.25;;;1.20;;
68365;SDS011;55283;51.466;5.478;2022-10-16T08:23:05;1.80;;;1.30;;
68365;SDS011;55283;51.466;5.478;2022-10-16T08:25:33;2.17;;;1.27;;
68365;SDS011;55283;51.466;5.478;2022-10-16T08:27:59;2.70;;;1.60;;
68365;SDS011;55283;51.466;5.478;2022-10-16T08:30:24;2.53;;;1.37;;
68365;SDS011;55283;51.466;5.478;2022-10-16T08:32:50;3.53;;;1.40;;
68365;SDS011;55283;51.466;5.478;2022-10-16T08:35:15;2.47;;;1.45;;
68365;SDS011;55283;51.466;5.478;2022-10-16T08:37:41;3.40;;;1.30;;
68365;SDS011;55283;51.466;5.478;2022-10-16T08:40:50;3.30;;;1.38;;
68365;SDS011;55283;51.466;5.478;2022-10-16T08:48:54;3.22;;;1.40;;
68365;SDS011;55283;51.466;5.478;2022-10-16T08:51:23;3.20;;;1.30;;
68365;SDS011;55283;51.466;5.478;2022-10-16T08:53:59;3.77;;;1.40;;
68365;SDS011;55283;51.466;5.478;2022-10-16T08:56:28;2.60;;;1.27;;
68365;SDS011;55283;51.466;5.478;2022-10-16T08:58:54;6.00;;;1.40;;
68365;SDS011;55283;51.466;5.478;2022-10-16T09:01:20;3.25;;;1.25;;
68365;SDS011;55283;51.466;5.478;2022-10-16T09:06:55;2.92;;;1.23;;
68365;SDS011;55283;51.466;5.478;2022-10-16T09:12:16;4.90;;;1.30;;
68365;SDS011;55283;51.466;5.478;2022-10-16T09:17:56;3.15;;;1.10;;
68365;SDS011;55283;51.466;5.478;2022-10-16T09:23:38;2.20;;;1.20;;
68365;SDS011;55283;51.466;5.478;2022-10-16T09:26:04;4.38;;;1.27;;
68365;SDS011;55283;51.466;5.478;2022-10-16T09:28:30;3.03;;;1.10;;
68365;SDS011;55283;51.466;5.478;2022-10-16T09:30:55;4.88;;;1.25;;
68365;SDS011;55283;51.466;5.478;2022-10-16T09:33:23;2.10;;;1.40;;
68365;SDS011;55283;51.466;5.478;2022-10-16T09:35:54;1.77;;;1.10;;
68365;SDS011;55283;51.466;5.478;2022-10-16T09:38:22;4.00;;;1.33;;
68365;SDS011;55283;51.466;5.478;2022-10-16T09:40:47;5.43;;;1.30;;
68365;SDS011;55283;51.466;5.478;2022-10-16T09:46:24;3.97;;;1.20;;
68365;SDS011;55283;51.466;5.478;2022-10-16T09:48:51;3.47;;;1.10;;
68365;SDS011;55283;51.466;5.478;2022-10-16T09:51:21;2.50;;;1.20;;
68365;SDS011;55283;51.466;5.478;2022-10-16T09:54:25;1.43;;;0.97;;
68365;SDS011;55283;51.466;5.478;2022-10-16T09:56:46;3.55;;;1.02;;
68365;SDS011;55283;51.466;5.478;2022-10-16T09:59:17;2.05;;;1.33;;
68365;SDS011;55283;51.466;5.478;2022-10-16T10:01:45;3.03;;;1.10;;
68365;SDS011;55283;51.466;5.478;2022-10-16T10:04:12;4.00;;;1.10;;
68365;SDS011;55283;51.466;5.478;2022-10-16T10:06:48;1.63;;;1.13;;
68365;SDS011;55283;51.466;5.478;2022-10-16T10:11:48;2.45;;;1.20;;
68365;SDS011;55283;51.466;5.478;2022-10-16T10:14:17;2.00;;;1.17;;
68365;SDS011;55283;51.466;5.478;2022-10-16T10:17:07;1.73;;;1.07;;
68365;SDS011;55283;51.466;5.478;2022-10-16T10:19:40;4.13;;;1.10;;
68365;SDS011;55283;51.466;5.478;2022-10-16T10:22:19;2.00;;;1.08;;
68365;SDS011;55283;51.466;5.478;2022-10-16T10:25:08;2.47;;;1.00;;
68365;SDS011;55283;51.466;5.478;2022-10-16T10:35:47;2.03;;;1.08;;
68365;SDS011;55283;51.466;5.478;2022-10-16T10:38:40;4.70;;;1.03;;
68365;SDS011;55283;51.466;5.478;2022-10-16T10:44:00;2.80;;;1.17;;
68365;SDS011;55283;51.466;5.478;2022-10-16T10:46:39;3.05;;;1.17;;
68365;SDS011;55283;51.466;5.478;2022-10-16T10:52:30;2.90;;;1.30;;
68365;SDS011;55283;51.466;5.478;2022-10-16T10:55:31;2.30;;;1.20;;
68365;SDS011;55283;51.466;5.478;2022-10-16T10:57:54;3.17;;;1.13;;
68365;SDS011;55283;51.466;5.478;2022-10-16T11:03:25;3.10;;;1.10;;
68365;SDS011;55283;51.466;5.478;2022-10-16T11:05:59;4.43;;;1.10;;
68365;SDS011;55283;51.466;5.478;2022-10-16T11:08:36;2.38;;;1.10;;
68365;SDS011;55283;51.466;5.478;2022-10-16T11:11:25;3.30;;;1.20;;
68365;SDS011;55283;51.466;5.478;2022-10-16T11:13:59;2.20;;;1.17;;
68365;SDS011;55283;51.466;5.478;2022-10-16T11:16:36;3.73;;;1.30;;
68365;SDS011;55283;51.466;5.478;2022-10-16T11:19:11;1.60;;;1.10;;
68365;SDS011;55283;51.466;5.478;2022-10-16T11:21:48;2.90;;;1.20;;
68365;SDS011;55283;51.466;5.478;2022-10-16T11:24:35;2.80;;;1.33;;
68365;SDS011;55283;51.466;5.478;2022-10-16T11:27:07;3.35;;;1.20;;
68365;SDS011;55283;51.466;5.478;2022-10-16T11:29:40;2.28;;;1.13;;
68365;SDS011;55283;51.466;5.478;2022-10-16T11:32:22;1.67;;;1.10;;
68365;SDS011;55283;51.466;5.478;2022-10-16T11:34:55;1.85;;;1.17;;
68365;SDS011;55283;51.466;5.478;2022-10-16T11:37:25;4.80;;;1.20;;
68365;SDS011;55283;51.466;5.478;2022-10-16T11:39:57;1.92;;;1.20;;
68365;SDS011;55283;51.466;5.478;2022-10-16T11:42:39;3.03;;;1.20;;
68365;SDS011;55283;51.466;5.478;2022-10-16T11:45:23;3.92;;;1.10;;
68365;SDS011;55283;51.466;5.478;2022-10-16T11:56:38;5.40;;;1.42;;
68365;SDS011;55283;51.466;5.478;2022-10-16T11:59:10;1.47;;;1.07;;
68365;SDS011;55283;51.466;5.478;2022-10-16T12:01:44;4.55;;;1.40;;
68365;SDS011;55283;51.466;5.478;2022-10-16T12:07:11;2.58;;;1.30;;
68365;SDS011;55283;51.466;5.478;2022-10-16T12:09:42;2.77;;;1.10;;
68365;SDS011;55283;51.466;5.478;2022-10-16T12:15:18;2.33;;;1.20;;
68365;SDS011;55283;51.466;5.478;2022-10-16T12:17:44;3.47;;;1.42;;
68365;SDS011;55283;51.466;5.478;2022-10-16T12:22:47;3.20;;;1.33;;
68365;SDS011;55283;51.466;5.478;2022-10-16T12:25:31;2.25;;;1.10;;
68365;SDS011;55283;51.466;5.478;2022-10-16T12:28:00;2.10;;;1.03;;
68365;SDS011;55283;51.466;5.478;2022-10-16T12:30:29;2.40;;;1.15;;
68365;SDS011;55283;51.466;5.478;2022-10-16T12:32:58;2.60;;;1.20;;
68365;SDS011;55283;51.466;5.478;2022-10-16T12:35:30;2.43;;;1.27;;
68365;SDS011;55283;51.466;5.478;2022-10-16T12:38:06;2.60;;;1.10;;
68365;SDS011;55283;51.466;5.478;2022-10-16T12:40:34;2.88;;;1.10;;
68365;SDS011;55283;51.466;5.478;2022-10-16T12:44:02;3.78;;;1.30;;
68365;SDS011;55283;51.466;5.478;2022-10-16T12:48:34;2.10;;;1.20;;
68365;SDS011;55283;51.466;5.478;2022-10-16T12:54:01;2.50;;;1.10;;
68365;SDS011;55283;51.466;5.478;2022-10-16T12:59:43;4.18;;;1.17;;
68365;SDS011;55283;51.466;5.478;2022-10-16T13:05:21;2.22;;;1.00;;
68365;SDS011;55283;51.466;5.478;2022-10-16T13:11:07;2.40;;;1.00;;
68365;SDS011;55283;51.466;5.478;2022-10-16T13:16:14;1.75;;;1.00;;
68365;SDS011;55283;51.466;5.478;2022-10-16T13:18:55;2.58;;;1.15;;
68365;SDS011;55283;51.466;5.478;2022-10-16T13:29:43;3.27;;;1.30;;
68365;SDS011;55283;51.466;5.478;2022-10-16T13:32:09;1.33;;;0.90;;
68365;SDS011;55283;51.466;5.478;2022-10-16T13:34:47;2.07;;;1.00;;
68365;SDS011;55283;51.466;5.478;2022-10-16T13:37:21;1.65;;;1.10;;
68365;SDS011;55283;51.466;5.478;2022-10-16T13:39:48;2.55;;;1.25;;
68365;SDS011;55283;51.466;5.478;2022-10-16T13:44:52;1.50;;;1.00;;
68365;SDS011;55283;51.466;5.478;2022-10-16T13:47:23;3.72;;;1.10;;
68365;SDS011;55283;51.466;5.478;2022-10-16T13:52:51;2.50;;;1.10;;
68365;SDS011;55283;51.466;5.478;2022-10-16T13:55:17;1.90;;;1.10;;
68365;SDS011;55283;51.466;5.478;2022-10-16T13:57:43;2.28;;;1.10;;
68365;SDS011;55283;51.466;5.478;2022-10-16T14:00:19;2.03;;;1.10;;
68365;SDS011;55283;51.466;5.478;2022-10-16T14:02:45;4.23;;;1.10;;
68365;SDS011;55283;51.466;5.478;2022-10-16T14:05:17;2.33;;;1.17;;
68365;SDS011;55283;51.466;5.478;2022-10-16T14:07:42;1.80;;;1.10;;
68365;SDS011;55283;51.466;5.478;2022-10-16T14:10:27;1.60;;;1.00;;
68365;SDS011;55283;51.466;5.478;2022-10-16T14:12:56;2.83;;;1.23;;
68365;SDS011;55283;51.466;5.478;2022-10-16T14:15:27;1.45;;;0.93;;
68365;SDS011;55283;51.466;5.478;2022-10-16T14:17:55;2.25;;;1.00;;
68365;SDS011;55283;51.466;5.478;2022-10-16T14:20:23;2.37;;;1.00;;
68365;SDS011;55283;51.466;5.478;2022-10-16T14:22:59;2.05;;;0.93;;
68365;SDS011;55283;51.466;5.478;2022-10-16T14:25:27;1.73;;;0.90;;
68365;SDS011;55283;51.466;5.478;2022-10-16T14:30:48;2.20;;;1.10;;
68365;SDS011;55283;51.466;5.478;2022-10-16T14:33:21;2.58;;;1.17;;
68365;SDS011;55283;51.466;5.478;2022-10-16T14:35:57;1.40;;;0.90;;
68365;SDS011;55283;51.466;5.478;2022-10-16T14:38:31;1.20;;;0.95;;
68365;SDS011;55283;51.466;5.478;2022-10-16T14:40:58;1.73;;;1.00;;
68365;SDS011;55283;51.466;5.478;2022-10-16T14:44:00;2.23;;;1.17;;
68365;SDS011;55283;51.466;5.478;2022-10-16T14:46:19;1.88;;;1.08;;
68365;SDS011;55283;51.466;5.478;2022-10-16T14:48:47;1.58;;;1.00;;
68365;SDS011;55283;51.466;5.478;2022-10-16T14:51:15;1.75;;;1.10;;
68365;SDS011;55283;51.466;5.478;2022-10-16T14:53:42;1.77;;;1.10;;
68365;SDS011;55283;51.466;5.478;2022-10-16T14:56:08;3.97;;;1.20;;
68365;SDS011;55283;51.466;5.478;2022-10-16T14:58:40;3.23;;;1.10;;
68365;SDS011;55283;51.466;5.478;2022-10-16T15:01:07;3.65;;;1.10;;
68365;SDS011;55283;51.466;5.478;2022-10-16T15:03:33;1.63;;;0.87;;
68365;SDS011;55283;51.466;5.478;2022-10-16T15:05:59;1.63;;;0.90;;
68365;SDS011;55283;51.466;5.478;2022-10-16T15:08:24;1.70;;;1.00;;
68365;SDS011;55283;51.466;5.478;2022-10-16T15:10:49;1.77;;;1.07;;
68365;SDS011;55283;51.466;5.478;2022-10-16T15:13:16;1.67;;;1.08;;
68365;SDS011;55283;51.466;5.478;2022-10-16T15:15:42;1.20;;;1.00;;
68365;SDS011;55283;51.466;5.478;2022-10-16T15:18:09;2.42;;;1.10;;
68365;SDS011;55283;51.466;5.478;2022-10-16T15:20:36;7.17;;;1.10;;
68365;SDS011;55283;51.466;5.478;2022-10-16T15:23:02;1.88;;;1.00;;
68365;SDS011;55283;51.466;5.478;2022-10-16T15:25:39;1.67;;;1.10;;
68365;SDS011;55283;51.466;5.478;2022-10-16T15:28:08;3.40;;;1.20;;
68365;SDS011;55283;51.466;5.478;2022-10-16T15:30:34;2.38;;;1.20;;
68365;SDS011;55283;51.466;5.478;2022-10-16T15:33:00;1.53;;;1.00;;
68365;SDS011;55283;51.466;5.478;2022-10-16T15:35:26;3.28;;;1.13;;
68365;SDS011;55283;51.466;5.478;2022-10-16T15:37:52;2.15;;;1.00;;
68365;SDS011;55283;51.466;5.478;2022-10-16T15:40:18;2.00;;;1.03;;
68365;SDS011;55283;51.466;5.478;2022-10-16T15:42:45;3.63;;;1.10;;
68365;SDS011;55283;51.466;5.478;2022-10-16T15:45:11;2.83;;;1.20;;
68365;SDS011;55283;51.466;5.478;2022-10-16T15:47:38;2.80;;;1.25;;
68365;SDS011;55283;51.466;5.478;2022-10-16T15:50:04;2.50;;;1.20;;
68365;SDS011;55283;51.466;5.478;2022-10-16T15:52:30;2.03;;;1.10;;
68365;SDS011;55283;51.466;5.478;2022-10-16T15:54:57;1.77;;;0.90;;
68365;SDS011;55283;51.466;5.478;2022-10-16T15:57:22;2.83;;;1.20;;
68365;SDS011;55283;51.466;5.478;2022-10-16T15:59:48;2.20;;;1.20;;
68365;SDS011;55283;51.466;5.478;2022-10-16T16:02:14;3.65;;;1.05;;
68365;SDS011;55283;51.466;5.478;2022-10-16T16:04:40;3.30;;;1.10;;
68365;SDS011;55283;51.466;5.478;2022-10-16T16:07:05;3.17;;;1.10;;
68365;SDS011;55283;51.466;5.478;2022-10-16T16:09:32;1.33;;;0.87;;
68365;SDS011;55283;51.466;5.478;2022-10-16T16:11:58;1.25;;;1.00;;
68365;SDS011;55283;51.466;5.478;2022-10-16T16:14:27;2.85;;;1.20;;
68365;SDS011;55283;51.466;5.478;2022-10-16T16:16:56;1.67;;;1.00;;
68365;SDS011;55283;51.466;5.478;2022-10-16T16:19:22;2.03;;;0.90;;
68365;SDS011;55283;51.466;5.478;2022-10-16T16:21:48;2.00;;;1.00;;
68365;SDS011;55283;51.466;5.478;2022-10-16T16:24:14;1.73;;;1.10;;
68365;SDS011;55283;51.466;5.478;2022-10-16T16:26:39;1.60;;;1.00;;
68365;SDS011;55283;51.466;5.478;2022-10-16T16:29:11;4.07;;;1.15;;
68365;SDS011;55283;51.466;5.478;2022-10-16T16:31:38;1.57;;;1.00;;
68365;SDS011;55283;51.466;5.478;2022-10-16T16:34:05;2.25;;;1.17;;
68365;SDS011;55283;51.466;5.478;2022-10-16T16:36:31;2.70;;;0.88;;
68365;SDS011;55283;51.466;5.478;2022-10-16T16:38:57;2.60;;;0.90;;
68365;SDS011;55283;51.466;5.478;2022-10-16T16:41:23;2.70;;;1.20;;
68365;SDS011;55283;51.466;5.478;2022-10-16T16:43:51;3.40;;;1.20;;
68365;SDS011;55283;51.466;5.478;2022-10-16T16:46:18;1.73;;;0.90;;
68365;SDS011;55283;51.466;5.478;2022-10-16T16:48:44;3.35;;;1.10;;
68365;SDS011;55283;51.466;5.478;2022-10-16T16:51:11;4.93;;;0.98;;
68365;SDS011;55283;51.466;5.478;2022-10-16T16:53:41;2.70;;;1.20;;
68365;SDS011;55283;51.466;5.478;2022-10-16T16:56:10;1.50;;;1.00;;
68365;SDS011;55283;51.466;5.478;2022-10-16T16:58:36;1.90;;;1.10;;